Flight Track Log - Related Links

Times and Time Zones

All times are in EDT time to prevent confusion due to time zone crossing. See the N724AE flight status page for this flight to view local times or setup timezone preferences in your user account.

Time Position Orientation Groundspeed Altitude Reporting Facility
EDT Latitude Longitude Course Direction KTS MPH feet Rate Location/Type
Fri 07:45:08 PM 32.8536 -97.0300 84° East 182 209 2,400  Level Fort Worth Center
Fri 07:46:08 PM 32.7953 -97.0303 180° South 197 227 4,800 2,000 Climbing Fort Worth Center
Fri 07:47:00 PM 32.6833 -96.7955 90° East  Level FlightAware Approximate
Fri 07:47:08 PM 32.7658 -96.9736 122° Southeast 190 219 6,400  Level Fort Worth Center
Fri 07:48:00 PM 32.7081 -96.6514 77° East  Level FlightAware Approximate
Fri 07:48:08 PM 32.7697 -96.8772 87° East 230 265 8,500  Level Fort Worth Center
Fri 07:49:00 PM 32.7341 -96.5074 84° East  Level FlightAware Approximate
Fri 07:49:08 PM 32.7711 -96.7661 89° East 291 335 10,700  Level Fort Worth Center
Fri 07:50:00 PM 32.7464 -96.3607 84° East  Level FlightAware Approximate
Fri 07:50:08 PM 32.7664 -96.6525 93° East 325 374 11,800  Level Fort Worth Center
Fri 07:51:08 PM 32.7656 -96.5289 90° East 366 421 13,100 1,200 Climbing Fort Worth Center
Fri 07:52:08 PM 32.7625 -96.4128 92° East 376 433 14,200 1,250 Climbing Fort Worth Center
Fri 07:53:08 PM 32.7508 -96.2697 96° East 387 445 15,600 1,250 Climbing Fort Worth Center
Fri 07:54:08 PM 32.7311 -96.1514 101° East 401 461 16,700 1,200 Climbing Fort Worth Center
Fri 07:55:08 PM 32.7086 -96.0011 100° East 416 479 18,000 1,150 Climbing Fort Worth Center
Fri 07:56:08 PM 32.6883 -95.8781 101° East 424 488 19,000 1,100 Climbing Fort Worth Center
Fri 07:57:08 PM 32.6633 -95.7231 101° East 431 496 20,200 1,100 Climbing Fort Worth Center
Fri 07:58:08 PM 32.6592 -95.5703 92° East 444 511 21,200 1,050 Climbing Fort Worth Center
Fri 07:59:08 PM 32.6756 -95.4167 83° East 458 527 22,300 1,000 Climbing Fort Worth Center
Fri 08:00:08 PM 32.6794 -95.2761 88° East 472 543 23,200 1,000 Climbing Fort Worth Center
Fri 08:01:08 PM 32.6894 -95.1203 86° East 472 543 24,300 1,100 Climbing Fort Worth Center
Fri 08:02:08 PM 32.6989 -94.9619 86° East 472 543 25,400 1,050 Climbing Fort Worth Center
Fri 08:03:08 PM 32.7061 -94.8064 87° East 477 549 26,400 1,050 Climbing Fort Worth Center
Fri 08:04:08 PM 32.6656 -94.6619 108° East 465 535 27,500 1,050 Climbing Fort Worth Center
Fri 08:05:08 PM 32.6164 -94.5203 112° Southeast 460 529 28,500 1,050 Climbing Fort Worth Center
Fri 08:06:08 PM 32.5692 -94.3764 111° Southeast 460 529 29,600 1,050 Climbing Fort Worth Center
Fri 08:07:08 PM 32.5219 -94.2375 112° Southeast 465 535 30,600 1,050 Climbing Fort Worth Center
Fri 08:08:08 PM 32.4722 -94.0942 112° Southeast 465 535 31,700 1,050 Climbing Fort Worth Center
Fri 08:09:08 PM 32.4225 -93.9531 113° Southeast 465 535 32,700 1,050 Climbing Fort Worth Center
Fri 08:10:08 PM 32.3747 -93.8100 112° Southeast 465 535 33,800 1,050 Climbing Fort Worth Center
Fri 08:11:08 PM 32.3267 -93.6667 112° Southeast 465 535 34,800 844 Climbing Fort Worth Center
Fri 08:13:20 PM 32.2183 -93.3644 113° Southeast 467 537 36,500 680 Climbing Houston Center
Fri 08:14:22 PM 32.1697 -93.2261 113° Southeast 461 531 37,000 242 Climbing Houston Center
Fri 08:15:24 PM 32.1097 -93.0583 113° Southeast 461 531 37,000  Level Houston Center
Fri 08:16:26 PM 32.0622 -92.9247 113° Southeast 467 537 37,000  Level Houston Center
Fri 08:17:28 PM 32.0117 -92.7825 113° Southeast 470 541 37,000  Level Houston Center
Fri 08:18:29 PM 31.9617 -92.6397 112° Southeast 471 542 37,000  Level Houston Center
Fri 08:19:31 PM 31.9247 -92.4928 106° East 470 541 37,000  Level Houston Center
Fri 08:20:33 PM 31.8856 -92.3456 107° East 470 541 37,000  Level Houston Center
Fri 08:21:35 PM 31.8381 -92.1714 108° East 468 539 37,000  Level Houston Center
Fri 08:22:37 PM 31.7986 -92.0244 107° East 469 540 37,000  Level Houston Center
Fri 08:23:38 PM 31.7542 -91.8631 108° East 472 543 37,000  Level Houston Center
Fri 08:24:40 PM 31.7128 -91.7144 108° East 477 549 37,000  Level Houston Center
Fri 08:25:42 PM 31.6722 -91.5661 108° East 477 549 37,000  Level Houston Center
Fri 08:26:44 PM 31.6311 -91.4181 108° East 477 549 37,000  Level Houston Center
Fri 08:27:46 PM 31.5908 -91.2694 108° East 478 550 37,000  Level Houston Center
Fri 08:28:47 PM 31.5497 -91.1214 108° East 478 550 37,000  Level Houston Center
Fri 08:29:49 PM 31.5019 -90.9522 108° East 478 550 37,000  Level Houston Center
Fri 08:30:51 PM 31.4592 -90.8042 109° East 480 552 37,000  Level Houston Center
Fri 08:31:53 PM 31.4181 -90.6567 108° East 478 550 37,000  Level Houston Center
Fri 08:32:55 PM 31.3761 -90.5092 108° East 477 549 37,000  Level Houston Center
Fri 08:33:57 PM 31.3339 -90.3631 109° East 475 547 37,000  Level Houston Center
Fri 08:34:59 PM 31.2978 -90.2122 106° East 482 555 37,000  Level Houston Center
Fri 08:36:00 PM 31.2789 -90.0542 98° East 490 564 37,000  Level Houston Center
Fri 08:37:02 PM 31.2572 -89.8650 98° East 489 563 37,000  Level Houston Center
Fri 08:38:04 PM 31.2369 -89.7072 99° East 490 564 37,000  Level Houston Center
Fri 08:39:06 PM 31.2175 -89.5497 98° East 489 563 37,000  Level Houston Center
Fri 08:40:08 PM 31.1981 -89.3947 98° East 483 556 37,000  Level Houston Center
Fri 08:41:09 PM 31.1789 -89.2397 98° East 481 554 37,000  Level Houston Center
Fri 08:42:11 PM 31.1589 -89.0853 99° East 481 554 37,000  Level Houston Center
Fri 08:43:13 PM 31.1364 -88.9169 99° East 477 549 37,000  Level Houston Center
Fri 08:44:15 PM 31.1167 -88.7658 99° East 473 544 37,000  Level Houston Center
Fri 08:45:17 PM 31.0947 -88.6008 99° East 469 540 37,000  Level Houston Center
Fri 08:46:18 PM 31.0742 -88.4503 99° East 471 542 37,000  Level Houston Center
Fri 08:47:20 PM 31.0536 -88.3011 99° East 467 537 37,000  Level Houston Center
Fri 08:48:22 PM 31.0333 -88.1500 99° East 471 542 37,000  Level Houston Center
Fri 08:49:23 PM 31.0144 -87.9967 98° East 478 550 37,000  Level Houston Center
Fri 08:50:25 PM 30.9931 -87.8450 99° East 477 549 37,000  Level Houston Center
Fri 08:51:27 PM 30.9697 -87.6867 100° East 473 544 37,000 -146 Level Houston Center
Fri 08:52:28 PM 30.9447 -87.5203 100° East 459 528 36,700 -634 Descending Houston Center
Fri 08:53:30 PM 30.9200 -87.3681 101° East 475 547 35,700 -919 Descending Houston Center
Fri 08:54:32 PM 30.8944 -87.2139 101° East 485 558 34,800 -976 Descending Houston Center
Fri 08:55:33 PM 30.8667 -87.0514 101° East 480 552 33,700 -976 Descending Houston Center
Fri 08:56:35 PM 30.8425 -86.8994 100° East 479 551 32,800 -898 Descending Houston Center
Fri 08:57:40 PM 30.8164 -86.7217 100° East 473 544 31,800 -912 Descending Jacksonville Center
Fri 08:58:40 PM 30.7894 -86.5778 102° East 485 558 30,900 -950 Descending Jacksonville Center
Fri 08:59:40 PM 30.7628 -86.4172 101° East 495 570 29,900 -950 Descending Jacksonville Center
Fri 09:00:40 PM 30.7356 -86.2617 101° East 495 570 29,000 -900 Descending Jacksonville Center
Fri 09:01:40 PM 30.7083 -86.0986 101° East 495 570 28,100 -950 Descending Jacksonville Center
Fri 09:02:40 PM 30.6789 -85.9383 102° East 500 575 27,100 -1,100 Descending Jacksonville Center
Fri 09:03:40 PM 30.6533 -85.7806 101° East 505 581 25,900 -1,950 Descending Jacksonville Center
Fri 09:04:40 PM 30.6236 -85.6203 102° East 505 581 23,200 -2,600 Descending Jacksonville Center
Fri 09:05:40 PM 30.5994 -85.4750 101° East 487 560 20,700 -2,450 Descending Jacksonville Center
Fri 09:06:40 PM 30.5731 -85.3319 102° East 469 540 18,300 -2,450 Descending Jacksonville Center
Fri 09:07:40 PM 30.5486 -85.1914 101° East 448 516 15,800 -2,300 Descending Jacksonville Center
Fri 09:08:40 PM 30.5239 -85.0483 101° East 431 496 13,700 -1,600 Descending Jacksonville Center
Fri 09:09:40 PM 30.4989 -84.9200 103° East 412 474 12,600 -850 Descending Jacksonville Center
Fri 09:10:40 PM 30.4758 -84.7894 102° East 412 474 12,000 -750 Descending Jacksonville Center
Fri 09:11:40 PM 30.4525 -84.6636 102° East 412 474 11,100 -1,000 Descending Jacksonville Center
Fri 09:12:40 PM 30.4311 -84.5525 103° East 385 443 10,000 -1,250 Descending Jacksonville Center
Fri 09:13:40 PM 30.4219 -84.4608 97° East 303 349 8,600 -1,550 Descending Jacksonville Center
Fri 09:14:40 PM 30.4353 -84.3814 79° East 279 321 6,900 -1,950 Descending Jacksonville Center
Fri 09:15:40 PM 30.4508 -84.3022 77° East 255 293 4,700 -2,200 Descending Jacksonville Center

Login

Don't have an account? Register now (free) for customized features, flight alerts, and more!